createdAt,value
2019-04-07T00:00:22.246Z,22.77
2019-04-07T00:02:53.139Z,22.47
2019-04-07T00:05:23.572Z,21.97
2019-04-07T00:07:55.288Z,22.27
2019-04-07T00:10:25.955Z,22.73
2019-04-07T00:12:58.331Z,21.67
2019-04-07T00:15:29.016Z,22.30
2019-04-07T00:17:59.421Z,22.53
2019-04-07T00:20:29.865Z,22.27
2019-04-07T00:23:00.188Z,19.40
2019-04-07T00:25:30.579Z,20.37
2019-04-07T00:28:01.005Z,19.53
2019-04-07T00:30:31.646Z,20.33
2019-04-07T00:33:02.163Z,20.27
2019-04-07T00:35:34.843Z,18.40
2019-04-07T00:38:05.417Z,19.73
2019-04-07T00:40:37.141Z,18.93
2019-04-07T00:43:07.512Z,17.27
2019-04-07T00:45:37.958Z,17.20
2019-04-07T00:48:08.239Z,18.10
2019-04-07T00:50:38.611Z,17.37
2019-04-07T00:53:09.060Z,19.47
2019-04-07T00:55:39.680Z,20.70
2019-04-07T00:58:09.985Z,18.77
2019-04-07T01:00:42.729Z,19.63
2019-04-07T01:03:13.681Z,18.87
2019-04-07T01:05:44.045Z,19.07
2019-04-07T01:08:15.444Z,18.13
2019-04-07T01:10:45.912Z,18.97
2019-04-07T01:13:16.605Z,19.93
2019-04-07T01:15:47.047Z,19.10
2019-04-07T01:18:17.402Z,19.93
2019-04-07T01:20:48.451Z,18.17
2019-04-07T01:23:19.350Z,17.73
2019-04-07T01:25:50.074Z,17.37
2019-04-07T01:28:20.874Z,16.90
2019-04-07T01:30:51.699Z,16.30
2019-04-07T01:33:22.296Z,17.30
2019-04-07T01:35:53.026Z,16.20
2019-04-07T01:38:23.450Z,15.20
2019-04-07T01:41:06.304Z,16.17
2019-04-07T01:43:58.399Z,17.40
2019-04-07T01:46:38.705Z,16.20
2019-04-07T01:49:27.262Z,17.00
2019-04-07T01:52:21.092Z,17.20
2019-04-07T01:55:09.205Z,17.00
2019-04-07T01:57:47.762Z,16.80
2019-04-07T02:00:24.980Z,16.77
2019-04-07T02:03:04.802Z,16.63
2019-04-07T02:05:59.287Z,16.00
2019-04-07T02:08:47.521Z,16.70
2019-04-07T02:11:35.466Z,15.60
2019-04-07T02:14:37.772Z,16.67
2019-04-07T02:17:33.369Z,16.50
2019-04-07T02:20:09.279Z,16.80
2019-04-07T02:22:58.618Z,16.07
2019-04-07T02:26:08.870Z,17.20
2019-04-07T02:28:52.640Z,16.63
2019-04-07T02:31:45.079Z,16.60
2019-04-07T02:34:27.885Z,16.00
2019-04-07T02:37:08.431Z,15.90
2019-04-07T02:39:54.947Z,17.23
2019-04-07T02:42:42.910Z,15.63
2019-04-07T02:45:38.313Z,16.27
2019-04-07T02:48:18.874Z,16.53
2019-04-07T02:51:13.131Z,17.10
2019-04-07T02:54:09.188Z,18.50
2019-04-07T02:56:52.535Z,17.53
2019-04-07T02:59:48.133Z,17.80
2019-04-07T03:02:41.192Z,16.53
2019-04-07T03:05:30.532Z,17.97
2019-04-07T03:08:08.663Z,17.17
2019-04-07T03:11:05.837Z,16.23
2019-04-07T03:13:54.442Z,16.50
2019-04-07T03:16:36.203Z,16.60
2019-04-07T03:19:22.061Z,16.83
2019-04-07T03:22:16.049Z,15.93
2019-04-07T03:24:52.973Z,15.50
2019-04-07T03:27:48.773Z,15.73
2019-04-07T03:30:28.400Z,16.90
2019-04-07T03:33:22.797Z,15.27
2019-04-07T03:36:18.001Z,16.70
2019-04-07T03:39:13.501Z,16.60
2019-04-07T03:42:03.042Z,17.20
2019-04-07T03:44:55.426Z,16.33
2019-04-07T03:47:40.330Z,16.47
2019-04-07T03:50:33.359Z,15.87
2019-04-07T03:53:17.986Z,15.33
2019-04-07T03:55:57.859Z,15.80
2019-04-07T03:58:39.775Z,15.30
2019-04-07T04:01:29.986Z,15.67
2019-04-07T04:04:34.866Z,14.23
2019-04-07T04:07:20.276Z,14.90
2019-04-07T04:10:04.136Z,14.40
2019-04-07T04:12:41.816Z,15.80
2019-04-07T04:15:22.282Z,14.73
2019-04-07T04:17:53.800Z,14.67
2019-04-07T04:20:24.261Z,14.27
2019-04-07T04:22:54.795Z,14.83
2019-04-07T04:25:25.035Z,14.93
2019-04-07T04:27:55.262Z,13.87
2019-04-07T04:30:25.748Z,16.20
2019-04-07T04:32:56.233Z,15.03
2019-04-07T04:35:26.691Z,15.57
2019-04-07T04:37:57.009Z,13.87
2019-04-07T04:40:28.059Z,14.53
2019-04-07T04:42:58.600Z,14.37
2019-04-07T04:45:29.906Z,14.80
2019-04-07T04:48:00.252Z,14.67
2019-04-07T04:50:30.522Z,14.53
2019-04-07T04:53:01.966Z,13.77
2019-04-07T04:55:32.462Z,13.90
2019-04-07T04:58:02.760Z,13.20
2019-04-07T05:00:34.051Z,14.00
2019-04-07T05:03:05.740Z,13.23
2019-04-07T05:05:36.795Z,13.40
2019-04-07T05:08:08.245Z,12.67
2019-04-07T05:10:39.212Z,13.53
2019-04-07T05:13:09.849Z,11.90
2019-04-07T05:15:44.457Z,11.67
2019-04-07T05:18:16.564Z,12.63
2019-04-07T05:20:47.743Z,11.30
2019-04-07T05:23:19.638Z,12.80
2019-04-07T05:25:50.429Z,12.27
2019-04-07T05:28:21.243Z,11.87
2019-04-07T05:30:54.324Z,11.37
2019-04-07T05:33:26.683Z,10.70
2019-04-07T05:35:59.348Z,11.33
2019-04-07T05:38:30.258Z,11.10
2019-04-07T05:41:01.873Z,11.30
2019-04-07T05:43:33.869Z,12.37
2019-04-07T05:46:06.512Z,10.97
2019-04-07T05:48:36.098Z,11.97
2019-04-07T05:51:07.114Z,12.73
2019-04-07T05:53:37.739Z,11.50
2019-04-07T05:56:08.632Z,11.93
2019-04-07T05:58:41.152Z,12.13
2019-04-07T06:01:10.850Z,11.73
2019-04-07T06:03:42.842Z,10.97
2019-04-07T06:06:13.432Z,10.87
2019-04-07T06:08:46.954Z,11.67
2019-04-07T06:11:16.964Z,11.23
2019-04-07T06:13:47.516Z,10.80
2019-04-07T06:16:18.535Z,11.57
2019-04-07T06:18:50.150Z,11.80
2019-04-07T06:21:23.404Z,10.53
2019-04-07T06:23:58.406Z,10.63
2019-04-07T06:26:27.789Z,16.23
2019-04-07T06:28:58.849Z,11.77
2019-04-07T06:31:32.220Z,10.37
2019-04-07T06:34:04.180Z,10.67
2019-04-07T06:36:35.063Z,10.50
2019-04-07T06:39:08.387Z,10.27
2019-04-07T06:41:39.028Z,9.57
2019-04-07T06:44:13.502Z,10.50
2019-04-07T06:46:53.578Z,9.67
2019-04-07T06:49:54.968Z,9.83
2019-04-07T06:52:41.037Z,8.97
2019-04-07T06:55:32.840Z,9.03
2019-04-07T06:58:21.028Z,8.93
2019-04-07T07:01:05.877Z,9.60
2019-04-07T07:03:53.847Z,9.43
2019-04-07T07:06:37.341Z,9.53
2019-04-07T07:09:26.547Z,9.50
2019-04-07T07:12:22.701Z,9.60
2019-04-07T07:15:05.998Z,9.33
2019-04-07T07:17:42.243Z,9.90
2019-04-07T07:20:38.190Z,9.67
2019-04-07T07:23:15.754Z,9.10
2019-04-07T07:25:46.520Z,9.10
2019-04-07T07:28:17.341Z,9.23
2019-04-07T07:30:51.040Z,9.23
2019-04-07T07:33:20.292Z,9.20
2019-04-07T07:35:50.847Z,8.10
2019-04-07T07:38:21.362Z,8.63
2019-04-07T07:40:51.658Z,8.93
2019-04-07T07:43:22.712Z,8.43
2019-04-07T07:45:52.998Z,9.00
2019-04-07T07:48:26.183Z,8.70
2019-04-07T07:50:55.831Z,8.50
2019-04-07T07:53:28.245Z,8.40
2019-04-07T07:55:58.189Z,8.67
2019-04-07T07:58:31.619Z,8.33
2019-04-07T08:01:01.432Z,8.70
2019-04-07T08:03:31.791Z,9.03
2019-04-07T08:06:04.655Z,9.33
2019-04-07T08:08:34.267Z,8.83
2019-04-07T08:11:04.635Z,8.57
2019-04-07T08:13:43.441Z,8.87
2019-04-07T08:16:09.832Z,9.30
2019-04-07T08:18:43.417Z,8.93
2019-04-07T08:21:12.603Z,10.13
2019-04-07T08:23:45.419Z,11.13
2019-04-07T08:26:15.935Z,11.47
2019-04-07T08:28:46.316Z,11.00
2019-04-07T08:31:19.643Z,11.53
2019-04-07T08:33:51.825Z,11.00
2019-04-07T08:36:23.769Z,10.77
2019-04-07T08:38:56.990Z,10.37
2019-04-07T08:41:29.131Z,10.37
2019-04-07T08:44:00.246Z,10.23
2019-04-07T08:46:39.435Z,11.67
2019-04-07T08:49:06.559Z,11.60
2019-04-07T08:51:36.818Z,11.40
2019-04-07T08:54:07.391Z,10.97
2019-04-07T08:56:37.740Z,12.20
2019-04-07T08:59:16.811Z,12.33
2019-04-07T09:01:45.200Z,11.70
2019-04-07T09:04:16.967Z,12.27
2019-04-07T09:06:48.768Z,11.33
2019-04-07T09:09:31.190Z,12.53
2019-04-07T09:11:54.987Z,12.80
2019-04-07T09:14:25.214Z,11.57
2019-04-07T09:17:35.495Z,12.50
2019-04-07T09:20:13.513Z,12.43
2019-04-07T09:23:03.011Z,13.00
2019-04-07T09:25:53.175Z,12.43
2019-04-07T09:28:33.175Z,12.13
2019-04-07T09:31:09.614Z,12.23
2019-04-07T09:34:18.226Z,12.10
2019-04-07T09:37:04.653Z,12.50
2019-04-07T09:39:58.518Z,12.37
2019-04-07T09:43:01.332Z,11.50
2019-04-07T09:45:51.918Z,12.03
2019-04-07T09:48:40.565Z,12.23
2019-04-07T09:51:58.412Z,12.10
2019-04-07T09:54:51.696Z,12.23
2019-04-07T09:57:54.888Z,12.97
2019-04-07T10:00:36.313Z,11.30
2019-04-07T10:03:35.467Z,12.60
2019-04-07T10:06:28.058Z,11.50
2019-04-07T10:09:23.192Z,12.60
2019-04-07T10:12:11.038Z,10.97
2019-04-07T10:15:02.158Z,11.30
2019-04-07T10:18:00.522Z,12.33
2019-04-07T10:21:01.710Z,12.43
2019-04-07T10:23:50.989Z,11.37
2019-04-07T10:26:32.534Z,11.10
2019-04-07T10:29:26.457Z,11.70
2019-04-07T10:32:11.395Z,13.37
2019-04-07T10:35:08.093Z,11.73
2019-04-07T10:38:15.405Z,12.10
2019-04-07T10:40:55.552Z,12.53
2019-04-07T10:43:53.648Z,12.73
2019-04-07T10:46:41.658Z,13.10
2019-04-07T10:49:40.614Z,12.57
2019-04-07T10:52:31.446Z,12.83
2019-04-07T10:55:20.733Z,13.63
2019-04-07T10:57:59.822Z,13.10
2019-04-07T11:00:50.788Z,11.17
2019-04-07T11:03:35.245Z,11.10
2019-04-07T11:06:21.520Z,11.23
2019-04-07T11:09:21.126Z,11.57
2019-04-07T11:12:28.821Z,12.57
2019-04-07T11:15:21.417Z,12.67
2019-04-07T11:18:16.506Z,11.87
2019-04-07T11:20:57.230Z,11.93
2019-04-07T11:23:41.456Z,13.30
2019-04-07T11:26:23.559Z,12.00
2019-04-07T11:29:04.599Z,11.73
2019-04-07T11:31:40.551Z,14.10
2019-04-07T11:34:29.328Z,13.20
2019-04-07T11:37:09.788Z,11.97
2019-04-07T11:39:53.470Z,13.03
2019-04-07T11:42:46.063Z,13.03
2019-04-07T11:45:56.433Z,13.27
2019-04-07T11:48:25.842Z,13.10
2019-04-07T11:51:07.289Z,13.23
2019-04-07T11:53:54.808Z,13.20
2019-04-07T11:56:43.416Z,12.33
2019-04-07T11:59:31.726Z,13.87
2019-04-07T12:02:18.649Z,12.83
2019-04-07T12:05:05.359Z,14.53
2019-04-07T12:08:13.917Z,14.00
2019-04-07T12:11:06.624Z,12.77
2019-04-07T12:13:44.632Z,13.47
2019-04-07T12:16:35.091Z,13.33
2019-04-07T12:19:12.597Z,13.90
2019-04-07T12:21:55.972Z,14.43
2019-04-07T12:24:49.081Z,14.93
2019-04-07T12:27:45.170Z,16.50
2019-04-07T12:30:37.978Z,15.50
2019-04-07T12:33:32.891Z,15.37
2019-04-07T12:36:30.823Z,14.60
2019-04-07T12:39:19.007Z,15.53
2019-04-07T12:41:58.077Z,15.50
2019-04-07T12:44:52.701Z,16.13
2019-04-07T12:47:37.522Z,15.87
2019-04-07T12:50:26.966Z,15.77
2019-04-07T12:53:15.443Z,16.53
2019-04-07T12:56:11.427Z,15.40
2019-04-07T12:58:58.329Z,14.57
2019-04-07T13:01:49.583Z,16.53
2019-04-07T13:04:37.874Z,14.60
2019-04-07T13:07:20.440Z,13.27
2019-04-07T13:10:00.303Z,14.40
2019-04-07T13:12:57.183Z,15.23
2019-04-07T13:15:48.943Z,15.33
2019-04-07T13:18:37.238Z,16.03
2019-04-07T13:21:16.635Z,15.67
2019-04-07T13:24:22.041Z,15.17
2019-04-07T13:27:05.830Z,16.73
2019-04-07T13:29:49.952Z,17.13
2019-04-07T13:32:43.219Z,16.20
2019-04-07T13:35:38.723Z,15.87
2019-04-07T13:38:34.005Z,14.97
2019-04-07T13:41:22.152Z,14.97
2019-04-07T13:44:12.845Z,15.97
2019-04-07T13:47:12.232Z,16.97
2019-04-07T13:50:02.407Z,16.80
2019-04-07T13:52:55.001Z,15.97
2019-04-07T13:55:32.300Z,16.73
2019-04-07T13:58:19.684Z,16.93
2019-04-07T14:01:18.105Z,17.30
2019-04-07T14:04:24.205Z,14.93
2019-04-07T14:07:19.873Z,17.30
2019-04-07T14:10:15.589Z,17.13
2019-04-07T14:13:06.222Z,16.57
2019-04-07T14:15:54.341Z,17.03
2019-04-07T14:18:54.125Z,16.77
2019-04-07T14:21:32.417Z,15.90
2019-04-07T14:24:15.213Z,16.20
2019-04-07T14:27:00.685Z,16.10
2019-04-07T14:29:52.760Z,15.63
2019-04-07T14:32:49.841Z,15.97
2019-04-07T14:35:39.131Z,16.47
2019-04-07T14:38:30.131Z,20.20
2019-04-07T14:41:22.103Z,15.23
2019-04-07T14:44:20.422Z,14.67
2019-04-07T14:47:09.646Z,13.83
2019-04-07T14:50:07.968Z,14.60
2019-04-07T14:53:06.656Z,14.70
2019-04-07T14:55:54.648Z,15.33
2019-04-07T14:58:35.844Z,15.07
2019-04-07T15:01:21.425Z,14.53
2019-04-07T15:03:52.464Z,14.90
2019-04-07T15:06:22.891Z,15.33
2019-04-07T15:09:03.111Z,16.10
2019-04-07T15:12:16.931Z,15.73
2019-04-07T15:14:37.380Z,14.97
2019-04-07T15:17:09.462Z,16.03
2019-04-07T15:19:41.152Z,16.10
2019-04-07T15:22:12.120Z,15.43
2019-04-07T15:24:42.865Z,14.47
2019-04-07T15:27:13.223Z,14.70
2019-04-07T15:29:45.045Z,15.40
2019-04-07T15:32:17.087Z,15.33
2019-04-07T15:34:47.902Z,14.73
2019-04-07T15:37:21.571Z,15.70
2019-04-07T15:40:00.451Z,15.30
2019-04-07T15:42:35.178Z,16.07
2019-04-07T15:45:11.263Z,16.80
2019-04-07T15:47:42.274Z,16.27
2019-04-07T15:50:13.790Z,16.60
2019-04-07T15:52:46.973Z,15.20
2019-04-07T15:55:17.640Z,16.30
2019-04-07T15:57:51.130Z,17.10
2019-04-07T16:00:23.811Z,17.53
2019-04-07T16:03:00.292Z,17.37
2019-04-07T16:05:38.036Z,17.10
2019-04-07T16:08:05.247Z,17.87
2019-04-07T16:10:41.351Z,17.37
2019-04-07T16:13:15.479Z,16.97
2019-04-07T16:15:53.675Z,17.53
2019-04-07T16:18:26.345Z,17.47
2019-04-07T16:20:58.028Z,17.97
2019-04-07T16:23:28.352Z,18.17
2019-04-07T16:26:00.584Z,18.00
2019-04-07T16:28:30.860Z,17.23
2019-04-07T16:31:01.563Z,16.70
2019-04-07T16:33:34.112Z,16.87
2019-04-07T16:36:04.403Z,16.53
2019-04-07T16:38:35.320Z,17.27
2019-04-07T16:41:06.559Z,17.73
2019-04-07T16:43:37.970Z,17.70
2019-04-07T16:46:08.852Z,17.63
2019-04-07T16:48:40.261Z,17.13
2019-04-07T16:51:11.281Z,17.43
2019-04-07T16:53:43.332Z,17.37
2019-04-07T16:56:14.802Z,16.97
2019-04-07T16:58:50.503Z,16.87
2019-04-07T17:01:24.591Z,16.70
2019-04-07T17:03:56.493Z,16.53
2019-04-07T17:06:31.897Z,17.10
2019-04-07T17:08:59.254Z,16.80
2019-04-07T17:11:32.259Z,17.43
2019-04-07T17:14:03.251Z,17.20
2019-04-07T17:16:34.655Z,17.03
2019-04-07T17:19:05.238Z,16.50
2019-04-07T17:21:37.669Z,16.83
2019-04-07T17:24:07.937Z,16.87
2019-04-07T17:26:39.405Z,16.83
2019-04-07T17:29:09.808Z,17.60
2019-04-07T17:31:41.126Z,16.70
2019-04-07T17:34:13.217Z,16.77
2019-04-07T17:36:44.062Z,17.23
2019-04-07T17:39:42.624Z,16.43
2019-04-07T17:42:14.424Z,17.53
2019-04-07T17:45:15.115Z,16.43
2019-04-07T17:48:23.379Z,17.17
2019-04-07T17:51:06.350Z,16.33
2019-04-07T17:53:45.361Z,15.13
2019-04-07T17:56:30.006Z,15.80
2019-04-07T17:59:10.323Z,16.10
2019-04-07T18:02:04.444Z,16.73
2019-04-07T18:04:55.035Z,16.23
2019-04-07T18:07:48.696Z,16.47
2019-04-07T18:10:39.155Z,17.37
2019-04-07T18:13:44.045Z,15.40
2019-04-07T18:16:31.870Z,18.30
2019-04-07T18:19:15.508Z,17.03
2019-04-07T18:22:10.709Z,16.77
2019-04-07T18:25:01.146Z,17.80
2019-04-07T18:27:48.681Z,17.00
2019-04-07T18:30:36.988Z,17.27
2019-04-07T18:33:25.345Z,17.63
2019-04-07T18:36:18.046Z,17.13
2019-04-07T18:39:03.336Z,18.13
2019-04-07T18:41:53.265Z,17.33
2019-04-07T18:44:58.521Z,17.70
2019-04-07T18:47:55.890Z,17.40
2019-04-07T18:50:43.344Z,18.63
2019-04-07T18:53:50.828Z,18.67
2019-04-07T18:56:49.570Z,17.87
2019-04-07T18:59:29.226Z,18.10
2019-04-07T19:02:18.220Z,17.57
2019-04-07T19:04:58.194Z,18.93
2019-04-07T19:07:48.555Z,18.40
2019-04-07T19:10:25.720Z,19.40
2019-04-07T19:13:17.677Z,18.70
2019-04-07T19:16:04.953Z,19.23
2019-04-07T19:19:03.271Z,19.17
2019-04-07T19:22:04.696Z,19.60
2019-04-07T19:25:05.098Z,19.40
2019-04-07T19:28:03.732Z,18.80
2019-04-07T19:30:52.466Z,20.63
2019-04-07T19:33:42.354Z,18.73
2019-04-07T19:36:30.519Z,17.97
2019-04-07T19:39:23.522Z,18.70
2019-04-07T19:42:18.186Z,19.33
2019-04-07T19:45:11.235Z,18.73
2019-04-07T19:47:59.383Z,18.73
2019-04-07T19:50:47.506Z,19.57
2019-04-07T19:53:32.672Z,19.53
2019-04-07T19:56:37.530Z,19.07
2019-04-07T19:59:30.171Z,19.83
2019-04-07T20:02:20.286Z,20.57
2019-04-07T20:05:10.128Z,19.20
2019-04-07T20:08:01.190Z,20.13
2019-04-07T20:10:52.336Z,20.57
2019-04-07T20:13:42.734Z,20.70
2019-04-07T20:16:36.340Z,23.77
2019-04-07T20:19:41.123Z,21.57
2019-04-07T20:22:30.694Z,22.07
2019-04-07T20:25:33.333Z,21.70
2019-04-07T20:28:23.000Z,23.03
2019-04-07T20:31:08.503Z,24.03
2019-04-07T20:34:05.554Z,23.90
2019-04-07T20:36:55.039Z,21.87
2019-04-07T20:39:34.190Z,22.73
2019-04-07T20:42:15.901Z,23.20
2019-04-07T20:45:05.702Z,23.27
2019-04-07T20:47:53.272Z,23.17
2019-04-07T20:50:48.835Z,22.60
2019-04-07T20:53:40.959Z,22.70
2019-04-07T20:56:31.399Z,22.17
2019-04-07T20:59:25.296Z,22.77
2019-04-07T21:02:12.688Z,21.83
2019-04-07T21:05:05.112Z,22.40
2019-04-07T21:08:00.814Z,22.67
2019-04-07T21:10:41.464Z,22.87
2019-04-07T21:13:21.757Z,23.60
2019-04-07T21:16:07.010Z,23.47
2019-04-07T21:19:12.465Z,23.23
2019-04-07T21:22:04.237Z,22.63
2019-04-07T21:24:45.537Z,23.20
2019-04-07T21:27:44.354Z,23.37
2019-04-07T21:30:36.833Z,23.20
2019-04-07T21:33:16.030Z,24.13
2019-04-07T21:36:20.493Z,24.17
2019-04-07T21:39:09.889Z,24.97
2019-04-07T21:41:59.173Z,24.00
2019-04-07T21:44:59.912Z,24.93
2019-04-07T21:47:42.602Z,25.83
2019-04-07T21:50:24.524Z,26.50
2019-04-07T21:53:33.546Z,24.83
2019-04-07T21:56:43.108Z,25.23
2019-04-07T21:59:21.476Z,24.53
2019-04-07T22:02:15.960Z,24.67
2019-04-07T22:04:58.829Z,22.40
2019-04-07T22:07:42.102Z,24.03
2019-04-07T22:10:13.598Z,24.63
2019-04-07T22:12:44.600Z,24.37
2019-04-07T22:15:15.384Z,26.40
2019-04-07T22:17:45.859Z,25.80
2019-04-07T22:20:18.868Z,24.63
2019-04-07T22:22:51.317Z,25.27
2019-04-07T22:25:36.211Z,26.30
2019-04-07T22:28:13.828Z,24.37
2019-04-07T22:30:45.510Z,25.57
2019-04-07T22:33:22.906Z,25.57
2019-04-07T22:35:51.400Z,24.73
2019-04-07T22:38:23.748Z,25.30
2019-04-07T22:40:54.372Z,23.80
2019-04-07T22:43:27.147Z,23.27
2019-04-07T22:46:06.248Z,23.67
2019-04-07T22:48:31.016Z,23.43
2019-04-07T22:51:04.123Z,22.93
2019-04-07T22:53:35.455Z,24.70
2019-04-07T22:56:07.800Z,23.70
2019-04-07T22:58:38.169Z,23.30
2019-04-07T23:01:09.038Z,24.60
2019-04-07T23:03:39.542Z,24.93
2019-04-07T23:06:10.612Z,23.93
2019-04-07T23:08:44.204Z,24.10
2019-04-07T23:11:16.120Z,25.07
2019-04-07T23:13:49.248Z,26.37
2019-04-07T23:16:20.333Z,25.40
2019-04-07T23:18:50.958Z,26.17
2019-04-07T23:21:21.514Z,24.03
2019-04-07T23:23:51.911Z,24.67
2019-04-07T23:26:26.452Z,25.80
2019-04-07T23:28:58.363Z,25.77
2019-04-07T23:31:30.416Z,26.23
2019-04-07T23:34:00.759Z,27.63
2019-04-07T23:36:32.003Z,26.17
2019-04-07T23:39:02.274Z,27.47
2019-04-07T23:41:34.008Z,27.77
2019-04-07T23:44:07.337Z,26.87
2019-04-07T23:46:37.934Z,27.60
2019-04-07T23:49:08.316Z,27.57
2019-04-07T23:51:41.407Z,27.13
2019-04-07T23:54:14.269Z,27.67
2019-04-07T23:56:47.756Z,26.57
2019-04-07T23:59:18.752Z,25.23
